Time,TemperatureF,DewpointF,PressureIn,WindDirection,WindDirectionDegrees,WindSpeedMPH,WindSpeedGustMPH,Humidity,HourlyPrecipIn,Conditions,Clouds,dailyrainin,SoftwareType,DateUTC
2016-02-13 00:03:00,-1.5,-10.1,30.53,WSW,247,5.3,-999.0,66,-99.99,,,0.00,Acu-Link.com,2016-02-13 06:03:00,
2016-02-13 00:18:00,-1.8,-10.3,30.53,NW,315,3.7,-999.0,66,-99.99,,,0.00,Acu-Link.com,2016-02-13 06:18:00,
2016-02-13 00:33:00,-2.0,-10.5,30.53,West,270,1.7,-999.0,66,-99.99,,,0.00,Acu-Link.com,2016-02-13 06:33:00,
2016-02-13 00:48:00,-2.4,-10.6,30.54,NNW,337,4.7,-999.0,67,-99.99,,,0.00,Acu-Link.com,2016-02-13 06:48:00,
2016-02-13 01:03:00,-2.6,-10.8,30.54,NNW,337,3.7,-999.0,67,-99.99,,,0.00,Acu-Link.com,2016-02-13 07:03:00,
2016-02-13 01:18:00,-2.9,-10.5,30.54,NW,315,2.7,-999.0,69,-99.99,,,0.00,Acu-Link.com,2016-02-13 07:18:00,
2016-02-13 01:34:00,-3.3,-10.6,30.54,WSW,247,1.7,-999.0,70,-99.99,,,0.00,Acu-Link.com,2016-02-13 07:34:00,
2016-02-13 01:49:00,-3.6,-10.9,30.55,West,270,3.7,-999.0,70,-99.99,,,0.00,Acu-Link.com,2016-02-13 07:49:00,
2016-02-13 02:04:00,-4.0,-11.0,30.54,West,270,2.2,-999.0,71,-99.99,,,0.00,Acu-Link.com,2016-02-13 08:04:00,
2016-02-13 02:19:00,-4.2,-10.9,30.55,West,270,1.7,-999.0,72,-99.99,,,0.00,Acu-Link.com,2016-02-13 08:19:00,
2016-02-13 02:50:00,-4.9,-11.3,30.55,NW,315,3.7,-999.0,73,-99.99,,,0.00,Acu-Link.com,2016-02-13 08:50:00,
2016-02-13 03:05:00,-5.1,-11.2,30.55,North,0,1.7,-999.0,74,-99.99,,,0.00,Acu-Link.com,2016-02-13 09:05:00,
2016-02-13 03:20:00,-5.3,-11.4,30.55,NNW,337,3.2,-999.0,74,-99.99,,,0.00,Acu-Link.com,2016-02-13 09:20:00,
2016-02-13 03:35:00,-5.4,-11.8,30.55,NNW,337,2.2,-999.0,73,-99.99,,,0.00,Acu-Link.com,2016-02-13 09:35:00,
2016-02-13 03:51:00,-5.4,-11.5,30.55,WNW,292,1.7,-999.0,74,-99.99,,,0.00,Acu-Link.com,2016-02-13 09:51:00,
2016-02-13 04:06:00,-6.2,-11.8,30.55,SW,225,0.0,-999.0,76,-99.99,,,0.00,Acu-Link.com,2016-02-13 10:06:00,
2016-02-13 04:21:00,-6.3,-11.9,30.55,NNW,337,1.1,-999.0,76,-99.99,,,0.00,Acu-Link.com,2016-02-13 10:21:00,
2016-02-13 04:36:00,-6.3,-11.9,30.54,NW,315,1.1,-999.0,76,-99.99,,,0.00,Acu-Link.com,2016-02-13 10:36:00,
2016-02-13 05:07:00,-7.1,-12.4,30.54,West,270,0.0,-999.0,77,-99.99,,,0.00,Acu-Link.com,2016-02-13 11:07:00,
2016-02-13 05:22:00,-7.4,-12.4,30.54,NE,45,0.0,-999.0,78,-99.99,,,0.00,Acu-Link.com,2016-02-13 11:22:00,
2016-02-13 05:37:00,-7.2,-12.0,30.53,NNE,22,0.0,-999.0,79,-99.99,,,0.00,Acu-Link.com,2016-02-13 11:37:00,
2016-02-13 05:52:00,-8.0,-12.5,30.54,WNW,292,0.0,-999.0,80,-99.99,,,0.00,Acu-Link.com,2016-02-13 11:52:00,
2016-02-13 06:07:00,-8.7,-13.2,30.53,North,0,0.0,-999.0,80,-99.99,,,0.00,Acu-Link.com,2016-02-13 12:07:00,
2016-02-13 06:23:00,-8.9,-12.9,30.53,NE,45,0.0,-999.0,82,-99.99,,,0.00,Acu-Link.com,2016-02-13 12:23:00,
2016-02-13 06:53:00,-9.2,-12.9,30.54,SW,225,0.0,-999.0,83,-99.99,,,0.00,Acu-Link.com,2016-02-13 12:53:00,
2016-02-13 07:09:00,-8.9,-12.6,30.55,NW,315,0.0,-999.0,83,-99.99,,,0.00,Acu-Link.com,2016-02-13 13:09:00,
2016-02-13 07:39:00,-8.9,-12.4,30.54,West,270,0.0,-999.0,84,-99.99,,,0.00,Acu-Link.com,2016-02-13 13:39:00,
2016-02-13 07:54:00,-8.1,-11.9,30.55,West,270,0.0,-999.0,83,-99.99,,,0.00,Acu-Link.com,2016-02-13 13:54:00,
2016-02-13 08:10:00,-6.9,-11.2,30.55,WSW,247,2.2,-999.0,81,-99.99,,,0.00,Acu-Link.com,2016-02-13 14:10:00,
2016-02-13 08:25:00,-4.9,-11.3,30.55,SW,225,0.0,-999.0,73,-99.99,,,0.00,Acu-Link.com,2016-02-13 14:25:00,
2016-02-13 08:40:00,-4.5,-11.2,30.55,SW,225,0.0,-999.0,72,-99.99,,,0.00,Acu-Link.com,2016-02-13 14:40:00,
2016-02-13 08:55:00,-4.4,-11.7,30.55,SSW,202,0.0,-999.0,70,-99.99,,,0.00,Acu-Link.com,2016-02-13 14:55:00,
2016-02-13 09:11:00,-2.6,-10.2,30.55,NNE,22,1.1,-999.0,69,-99.99,,,0.00,Acu-Link.com,2016-02-13 15:11:00,
2016-02-13 09:26:00,-1.7,-10.6,30.54,SW,225,0.0,-999.0,65,-99.99,,,0.00,Acu-Link.com,2016-02-13 15:26:00,
2016-02-13 09:41:00,-0.6,-9.8,30.54,SSW,202,1.7,-999.0,64,-99.99,,,0.00,Acu-Link.com,2016-02-13 15:41:00,
2016-02-13 09:56:00,0.5,-9.1,30.54,WSW,247,3.7,-999.0,63,-99.99,,,0.00,Acu-Link.com,2016-02-13 15:56:00,
2016-02-13 10:12:00,1.9,-8.1,30.53,SSW,202,1.7,-999.0,62,-99.99,,,0.00,Acu-Link.com,2016-02-13 16:12:00,
2016-02-13 10:57:00,5.4,-8.4,30.53,South,180,4.2,-999.0,52,-99.99,,,0.00,Acu-Link.com,2016-02-13 16:57:00,
2016-02-13 11:13:00,5.9,-9.1,30.52,SSE,157,2.7,-999.0,49,-99.99,,,0.00,Acu-Link.com,2016-02-13 17:13:00,
2016-02-13 11:43:00,6.3,-8.7,30.52,NE,45,2.2,-999.0,49,-99.99,,,0.00,Acu-Link.com,2016-02-13 17:43:00,
2016-02-13 11:58:00,8.4,-7.6,30.51,SSE,157,2.2,-999.0,47,-99.99,,,0.00,Acu-Link.com,2016-02-13 17:58:00,
2016-02-13 12:13:00,8.6,-7.9,30.50,SE,135,3.7,-999.0,46,-99.99,,,0.00,Acu-Link.com,2016-02-13 18:13:00,
2016-02-13 12:29:00,8.8,-7.7,30.49,SSE,157,2.2,-999.0,46,-99.99,,,0.00,Acu-Link.com,2016-02-13 18:29:00,
2016-02-13 12:44:00,9.3,-7.7,30.48,ESE,112,2.7,-999.0,45,-99.99,,,0.00,Acu-Link.com,2016-02-13 18:44:00,
2016-02-13 12:59:00,9.0,-8.0,30.47,ENE,67,2.7,-999.0,45,-99.99,,,0.00,Acu-Link.com,2016-02-13 18:59:00,
2016-02-13 13:14:00,10.0,-7.1,30.46,East,90,5.3,-999.0,45,-99.99,,,0.00,Acu-Link.com,2016-02-13 19:14:00,
2016-02-13 13:29:00,10.2,-6.9,30.44,East,90,3.2,-999.0,45,-99.99,,,0.00,Acu-Link.com,2016-02-13 19:29:00,
2016-02-13 13:44:00,10.9,-6.7,30.44,SSE,157,2.7,-999.0,44,-99.99,,,0.00,Acu-Link.com,2016-02-13 19:44:00,
2016-02-13 14:00:00,11.8,-6.8,30.43,SSE,157,1.1,-999.0,42,-99.99,,,0.00,Acu-Link.com,2016-02-13 20:00:00,
2016-02-13 14:15:00,12.4,-6.8,30.41,SE,135,4.2,-999.0,41,-99.99,,,0.00,Acu-Link.com,2016-02-13 20:15:00,
2016-02-13 14:30:00,12.4,-5.8,30.40,South,180,3.2,-999.0,43,-99.99,,,0.00,Acu-Link.com,2016-02-13 20:30:00,
2016-02-13 14:46:00,13.3,-5.0,30.40,South,180,1.7,-999.0,43,-99.99,,,0.00,Acu-Link.com,2016-02-13 20:46:00,
2016-02-13 15:01:00,12.9,-5.3,30.38,South,180,5.3,-999.0,43,-99.99,,,0.00,Acu-Link.com,2016-02-13 21:01:00,
2016-02-13 15:16:00,12.7,-6.0,30.38,SSE,157,7.3,-999.0,42,-99.99,,,0.00,Acu-Link.com,2016-02-13 21:16:00,
2016-02-13 15:31:00,12.0,-6.2,30.38,ESE,112,4.2,-999.0,43,-99.99,,,0.00,Acu-Link.com,2016-02-13 21:31:00,
2016-02-13 15:46:00,12.6,-5.6,30.38,SSE,157,4.2,-999.0,43,-99.99,,,0.00,Acu-Link.com,2016-02-13 21:46:00,
2016-02-13 16:02:00,12.2,-6.9,30.37,SSE,157,2.2,-999.0,41,-99.99,,,0.00,Acu-Link.com,2016-02-13 22:02:00,
2016-02-13 16:17:00,11.8,-8.9,30.37,SSE,157,4.2,-999.0,38,-99.99,,,0.00,Acu-Link.com,2016-02-13 22:17:00,